Time;durP1;ratioP1;P1;durP2;ratioP2;P2;SDS_P1;SDS_P2;PMS_P1;PMS_P2;Temp;Humidity;BMP_temperature;BMP_pressure;BME280_temperature;BME280_humidity;BME280_pressure;Samples;Min_cycle;Max_cycle;Signal;HPM_P1;HPM_P2
2022/11/12 00:00:58;;;;;;;8.85;5.53;;;10.00;99.90;;;;;;10075960;28;20017;-65
2022/11/12 00:05:49;;;;;;;12.07;6.00;;;9.90;99.90;;;;;;10080990;28;20025;-66
2022/11/12 00:10:40;;;;;;;8.95;5.38;;;9.90;99.90;;;;;;10085273;28;20094;-66
2022/11/12 00:15:30;;;;;;;11.52;6.00;;;9.80;99.90;;;;;;10064291;28;20592;-67
2022/11/12 00:20:21;;;;;;;8.38;5.07;;;9.90;99.90;;;;;;10084681;28;20043;-65
2022/11/12 00:25:12;;;;;;;9.18;5.38;;;9.80;99.90;;;;;;10081393;28;20037;-64
2022/11/12 00:30:04;;;;;;;7.78;4.50;;;9.90;99.90;;;;;;10079433;28;20116;-66
2022/11/12 00:34:54;;;;;;;9.45;4.95;;;9.80;99.90;;;;;;10076672;28;20045;-66
2022/11/12 00:39:45;;;;;;;7.28;4.18;;;9.90;99.90;;;;;;10080676;28;20021;-66
2022/11/12 00:44:36;;;;;;;9.73;4.90;;;10.00;99.90;;;;;;10085238;28;20030;-65
2022/11/12 00:49:27;;;;;;;9.40;4.85;;;9.90;99.90;;;;;;10075447;28;20053;-65
2022/11/12 00:54:18;;;;;;;9.45;4.68;;;9.90;99.90;;;;;;10074814;28;20041;-66
2022/11/12 00:59:08;;;;;;;8.07;4.82;;;9.90;99.90;;;;;;10056216;28;20110;-64
2022/11/12 01:03:59;;;;;;;8.68;4.75;;;9.90;99.90;;;;;;10064787;28;20029;-66
2022/11/12 01:08:50;;;;;;;6.40;4.22;;;9.90;99.90;;;;;;10069798;28;20360;-64
2022/11/12 01:13:44;;;;;;;8.63;4.70;;;9.90;99.90;;;;;;10070696;28;20036;-65
2022/11/12 01:18:35;;;;;;;8.73;4.28;;;9.90;99.90;;;;;;10084079;28;20031;-65
2022/11/12 01:23:26;;;;;;;9.32;4.57;;;9.80;99.90;;;;;;10087142;28;20347;-65
2022/11/12 01:28:16;;;;;;;7.22;4.75;;;9.80;99.90;;;;;;10074541;28;20451;-65
2022/11/12 01:33:07;;;;;;;9.15;4.63;;;9.90;99.90;;;;;;10063464;28;20052;-63
2022/11/12 01:37:57;;;;;;;9.73;5.30;;;9.90;99.90;;;;;;10063882;28;20906;-65
2022/11/12 01:42:52;;;;;;;6.80;4.65;;;9.90;99.90;;;;;;10080393;28;20029;-65
2022/11/12 01:47:46;;;;;;;9.13;4.57;;;9.90;99.90;;;;;;10073836;28;20510;-64
2022/11/12 01:53:01;;;;;;;7.85;4.45;;;9.90;99.90;;;;;;10077806;28;20128;-64
2022/11/12 01:57:58;;;;;;;10.90;5.35;;;9.90;99.90;;;;;;10080285;28;20041;-64
2022/11/12 02:02:58;;;;;;;9.05;4.70;;;9.90;99.90;;;;;;10085684;28;20499;-64
2022/11/12 02:07:50;;;;;;;7.65;5.03;;;9.80;99.90;;;;;;10073841;28;20585;-65
2022/11/12 02:17:52;;;;;;;8.15;4.25;;;9.80;99.90;;;;;;10078364;28;20031;-64
2022/11/12 02:22:43;;;;;;;10.38;4.40;;;9.90;99.90;;;;;;10082383;28;20033;-65
2022/11/12 02:27:33;;;;;;;8.25;5.00;;;9.90;99.90;;;;;;10070902;28;20017;-64
2022/11/12 02:32:24;;;;;;;8.40;4.68;;;9.90;99.90;;;;;;10073946;28;20033;-65
2022/11/12 02:37:15;;;;;;;6.47;3.58;;;9.90;99.90;;;;;;10068173;28;20124;-65
2022/11/12 02:42:05;;;;;;;6.38;3.80;;;9.80;99.90;;;;;;10071145;28;20040;-65
2022/11/12 02:46:56;;;;;;;8.82;4.50;;;9.80;99.90;;;;;;10066703;28;20438;-64
2022/11/12 02:51:47;;;;;;;7.63;4.43;;;9.90;99.90;;;;;;10075882;28;20411;-65
2022/11/12 02:56:37;;;;;;;5.60;3.40;;;9.90;99.90;;;;;;10070666;28;20123;-65
2022/11/12 03:01:28;;;;;;;5.90;3.60;;;9.90;99.90;;;;;;10084034;28;20472;-65
2022/11/12 03:06:18;;;;;;;6.80;3.83;;;9.90;99.90;;;;;;10075562;28;20461;-65
2022/11/12 03:11:11;;;;;;;8.07;4.05;;;9.90;99.90;;;;;;10073427;28;20519;-64
2022/11/12 03:16:02;;;;;;;6.82;4.32;;;9.80;99.90;;;;;;10082262;28;20070;-65
2022/11/12 03:20:53;;;;;;;8.63;4.28;;;9.80;99.90;;;;;;10085907;28;20025;-65
2022/11/12 03:25:44;;;;;;;8.93;4.00;;;9.70;99.90;;;;;;10073602;28;20051;-65
2022/11/12 03:30:37;;;;;;;5.68;3.85;;;9.80;99.90;;;;;;10088092;28;20025;-63
2022/11/12 03:35:28;;;;;;;8.77;4.68;;;9.80;99.90;;;;;;10076503;28;20424;-64
2022/11/12 03:40:19;;;;;;;7.38;4.05;;;9.90;99.90;;;;;;10080692;28;20041;-64
2022/11/12 03:45:09;;;;;;;10.23;3.75;;;9.80;99.90;;;;;;10079367;28;20047;-63
2022/11/12 03:50:00;;;;;;;8.73;3.85;;;9.90;99.90;;;;;;10065095;28;20034;-64
2022/11/12 03:54:51;;;;;;;9.55;4.25;;;9.90;99.90;;;;;;10065933;28;20483;-66
2022/11/12 03:59:41;;;;;;;5.13;3.72;;;9.70;99.90;;;;;;10069148;28;20021;-65
2022/11/12 04:09:41;;;;;;;6.07;3.75;;;9.60;99.90;;;;;;10080414;28;20075;-66
2022/11/12 04:14:32;;;;;;;6.53;3.55;;;9.70;99.90;;;;;;10088194;28;20179;-64
2022/11/12 04:34:54;;;;;;;6.25;3.70;;;9.60;99.90;;;;;;10075948;28;20571;-65
2022/11/12 04:39:44;;;;;;;4.95;3.30;;;9.70;99.90;;;;;;10064838;28;20079;-65
2022/11/12 04:49:44;;;;;;;5.82;3.10;;;9.50;99.90;;;;;;10077583;28;20039;-65
2022/11/12 04:54:35;;;;;;;5.35;3.53;;;9.50;99.90;;;;;;10071059;28;20418;-65
2022/11/12 04:59:25;;;;;;;5.93;3.33;;;9.50;99.90;;;;;;10070941;28;20026;-65
2022/11/12 05:04:16;;;;;;;6.20;3.30;;;9.50;99.90;;;;;;10071408;28;20036;-65
2022/11/12 05:09:07;;;;;;;7.70;3.72;;;9.60;99.90;;;;;;10081933;28;20112;-64
2022/11/12 05:13:57;;;;;;;6.32;3.33;;;9.60;99.90;;;;;;10076152;28;20116;-64
2022/11/12 05:18:48;;;;;;;6.70;3.28;;;9.50;99.90;;;;;;10074808;28;20068;-66
2022/11/12 05:23:39;;;;;;;4.72;3.20;;;9.50;99.90;;;;;;10063589;28;20029;-66
2022/11/12 05:28:29;;;;;;;3.50;2.58;;;9.50;99.90;;;;;;10077372;28;20056;-65
2022/11/12 05:33:20;;;;;;;7.68;3.28;;;9.50;99.90;;;;;;10063989;28;20051;-64
2022/11/12 05:38:11;;;;;;;6.50;3.53;;;9.40;99.90;;;;;;10059526;28;20028;-64
2022/11/12 05:43:02;;;;;;;4.75;3.20;;;9.40;99.90;;;;;;10072940;28;20025;-64
2022/11/12 05:47:52;;;;;;;4.32;2.80;;;9.30;99.90;;;;;;10076886;28;20217;-66
2022/11/12 05:52:44;;;;;;;5.05;2.92;;;9.40;99.90;;;;;;10064953;28;20557;-65
2022/11/12 05:57:35;;;;;;;4.35;2.63;;;9.30;99.90;;;;;;10056363;28;20220;-66
2022/11/12 06:02:25;;;;;;;4.38;2.60;;;9.20;99.90;;;;;;10071979;28;20203;-65
2022/11/12 06:07:16;;;;;;;5.47;2.80;;;9.30;99.90;;;;;;10071291;28;20033;-66
2022/11/12 06:12:07;;;;;;;3.65;2.25;;;9.30;99.90;;;;;;10063125;28;20043;-65
2022/11/12 06:16:57;;;;;;;5.63;2.83;;;9.30;99.90;;;;;;10087980;28;20025;-66
2022/11/12 06:21:48;;;;;;;5.90;2.80;;;9.30;99.90;;;;;;10086777;28;20021;-65
2022/11/12 06:26:39;;;;;;;4.25;3.22;;;9.20;99.90;;;;;;10068785;28;20030;-65
2022/11/12 06:31:29;;;;;;;6.60;3.35;;;9.20;99.90;;;;;;10060832;28;20025;-64
2022/11/12 06:36:20;;;;;;;6.75;2.75;;;9.20;99.90;;;;;;10070705;28;20052;-64
2022/11/12 06:41:12;;;;;;;5.22;2.97;;;9.30;99.90;;;;;;10083934;28;20029;-64
2022/11/12 06:46:08;;;;;;;4.50;2.78;;;9.30;99.90;;;;;;10091417;28;20025;-65
2022/11/12 06:51:04;;;;;;;;;;;9.20;99.90;;;;;;10058594;28;20028;-66
2022/11/12 06:56:00;;;;;;;5.25;3.17;;;9.10;99.90;;;;;;10080029;28;20268;-66
2022/11/12 07:00:51;;;;;;;4.57;2.40;;;9.10;99.90;;;;;;10080769;28;20033;-64
2022/11/12 07:05:42;;;;;;;7.53;3.47;;;9.10;99.90;;;;;;10083961;28;20471;-66
2022/11/12 07:10:32;;;;;;;5.90;3.08;;;9.10;99.90;;;;;;10081288;28;20033;-65
2022/11/12 07:15:23;;;;;;;8.65;3.70;;;9.20;99.90;;;;;;10091169;28;20044;-65
2022/11/12 07:20:14;;;;;;;7.15;2.92;;;9.20;99.90;;;;;;10089117;28;20033;-67
2022/11/12 07:25:05;;;;;;;5.28;3.17;;;9.10;99.90;;;;;;10080582;28;20036;-65
2022/11/12 07:29:56;;;;;;;6.13;3.25;;;9.10;99.90;;;;;;10066127;28;20021;-65
2022/11/12 07:34:46;;;;;;;5.57;3.03;;;9.10;99.90;;;;;;10072738;28;20077;-66
2022/11/12 07:39:37;;;;;;;4.53;3.03;;;9.10;99.90;;;;;;10071403;28;20059;-65
2022/11/12 07:44:28;;;;;;;6.05;2.90;;;9.10;99.90;;;;;;10076979;28;20048;-65
2022/11/12 07:49:18;;;;;;;5.78;2.55;;;9.10;99.90;;;;;;10082521;28;20057;-65
2022/11/12 07:54:09;;;;;;;6.07;4.32;;;9.20;99.90;;;;;;10084007;28;20082;-63
2022/11/12 07:59:00;;;;;;;7.05;3.60;;;9.20;99.90;;;;;;10073622;28;20056;-66
2022/11/12 08:03:50;;;;;;;6.53;3.38;;;9.10;99.90;;;;;;10083632;28;20113;-65
2022/11/12 08:08:41;;;;;;;7.43;3.03;;;9.20;99.90;;;;;;10086134;28;20480;-63
2022/11/12 08:13:32;;;;;;;8.38;3.75;;;9.20;99.90;;;;;;10061109;28;20051;-64
2022/11/12 08:18:22;;;;;;;8.23;4.10;;;8.90;99.90;;;;;;10078840;28;20517;-65
2022/11/12 08:23:13;;;;;;;7.70;4.65;;;8.90;99.90;;;;;;10085658;28;20033;-65
2022/11/12 08:28:04;;;;;;;6.82;4.47;;;9.10;99.90;;;;;;10072523;28;20033;-65
2022/11/12 08:33:00;;;;;;;5.05;3.03;;;9.30;99.90;;;;;;10070750;28;20612;-65
2022/11/12 08:37:50;;;;;;;7.10;4.13;;;9.40;99.90;;;;;;10077296;28;20029;-65
2022/11/12 08:42:41;;;;;;;5.90;3.58;;;9.60;99.90;;;;;;10082364;28;20041;-65
2022/11/12 08:47:32;;;;;;;8.68;4.97;;;9.50;99.90;;;;;;10082399;28;20514;-64
2022/11/12 08:52:22;;;;;;;7.50;3.53;;;9.30;99.90;;;;;;10076666;28;20098;-64
2022/11/12 08:57:13;;;;;;;5.38;3.42;;;9.60;99.90;;;;;;10066716;28;20029;-64
2022/11/12 09:02:05;;;;;;;10.15;5.82;;;9.60;99.90;;;;;;10080185;28;20664;-65
2022/11/12 09:06:55;;;;;;;7.57;4.10;;;9.60;99.90;;;;;;10079590;28;20025;-64
2022/11/12 09:11:46;;;;;;;7.55;4.50;;;9.50;99.90;;;;;;10075764;28;20098;-65
2022/11/12 09:16:36;;;;;;;9.13;4.72;;;9.40;99.90;;;;;;10084421;28;20028;-64
2022/11/12 09:21:27;;;;;;;7.90;3.75;;;9.30;99.90;;;;;;10079326;28;20021;-65
2022/11/12 09:26:18;;;;;;;6.72;3.75;;;9.30;99.90;;;;;;10066705;28;20434;-66
2022/11/12 09:31:08;;;;;;;4.80;4.00;;;9.20;99.90;;;;;;10063416;28;20584;-66
2022/11/12 09:36:00;;;;;;;7.18;4.15;;;9.30;99.90;;;;;;10069530;28;20463;-65
2022/11/12 09:40:51;;;;;;;9.65;3.85;;;9.40;99.90;;;;;;10067563;28;20090;-65
2022/11/12 09:45:43;;;;;;;9.35;5.10;;;9.30;99.90;;;;;;10067218;28;20029;-65
2022/11/12 09:50:40;;;;;;;6.72;3.95;;;9.40;99.90;;;;;;10076610;28;20075;-63
2022/11/12 09:55:42;;;;;;;12.20;7.10;;;9.30;99.90;;;;;;10063356;28;20084;-65
2022/11/12 10:00:33;;;;;;;6.72;4.70;;;9.40;99.90;;;;;;10062824;28;20026;-64
2022/11/12 10:05:27;;;;;;;6.97;4.63;;;9.40;99.90;;;;;;10046472;28;20037;-64
2022/11/12 10:10:48;;;;;;;10.02;4.22;;;9.40;99.90;;;;;;10070867;28;20255;-64
2022/11/12 10:21:39;;;;;;;5.13;3.53;;;9.50;99.90;;;;;;10062352;28;20096;-65
2022/11/12 10:26:31;;;;;;;5.53;3.38;;;9.50;99.90;;;;;;10066757;28;20090;-65
2022/11/12 10:31:22;;;;;;;7.15;3.53;;;9.60;99.90;;;;;;10067639;28;20029;-65
2022/11/12 10:36:20;;;;;;;7.32;3.65;;;9.70;99.90;;;;;;10069999;28;20059;-65
2022/11/12 10:41:32;;;;;;;8.95;3.70;;;9.60;99.90;;;;;;10058756;28;20057;-65
2022/11/12 10:46:35;;;;;;;6.53;4.13;;;9.60;99.90;;;;;;10084946;28;20825;-65
2022/11/12 10:51:31;;;;;;;7.20;4.35;;;9.70;99.90;;;;;;10078116;28;20059;-65
2022/11/12 10:56:30;;;;;;;10.02;4.90;;;9.70;99.90;;;;;;10077877;28;20227;-65
2022/11/12 11:01:21;;;;;;;9.75;3.72;;;9.60;99.90;;;;;;10071274;28;20051;-64
2022/11/12 11:06:15;;;;;;;7.45;4.00;;;9.60;99.90;;;;;;10072764;28;20108;-66
2022/11/12 11:11:23;;;;;;;5.95;3.90;;;9.60;99.90;;;;;;10084419;28;20021;-67
2022/11/12 11:16:20;;;;;;;8.63;4.70;;;9.50;99.90;;;;;;10059912;28;20083;-64
2022/11/12 11:21:22;;;;;;;7.43;3.72;;;9.60;99.90;;;;;;10084709;28;20762;-64
2022/11/12 11:26:31;;;;;;;10.20;5.30;;;9.50;99.90;;;;;;10076956;28;20048;-65
2022/11/12 11:31:44;;;;;;;7.85;3.95;;;9.60;99.90;;;;;;10062509;28;20048;-65
2022/11/12 11:36:40;;;;;;;6.85;4.18;;;9.60;99.90;;;;;;10071630;28;20053;-65
2022/11/12 11:41:53;;;;;;;7.28;4.13;;;9.50;99.90;;;;;;10077516;28;20423;-65
2022/11/12 11:46:47;;;;;;;7.88;4.18;;;9.60;99.90;;;;;;10083983;28;20029;-65
2022/11/12 11:51:40;;;;;;;9.20;5.20;;;9.70;99.90;;;;;;10075607;28;20116;-64
2022/11/12 11:56:35;;;;;;;9.20;4.72;;;9.60;99.90;;;;;;10071165;28;20037;-64
2022/11/12 12:01:59;;;;;;;8.20;4.07;;;9.70;99.90;;;;;;10082779;28;20017;-64
2022/11/12 12:07:00;;;;;;;9.38;4.78;;;9.70;99.90;;;;;;10079589;28;20025;-64
2022/11/12 12:12:27;;;;;;;8.98;4.25;;;9.80;99.90;;;;;;10072467;28;20041;-65
2022/11/12 12:17:52;;;;;;;7.13;4.03;;;9.60;99.90;;;;;;10075799;28;20072;-66
2022/11/12 12:22:52;;;;;;;9.80;4.87;;;9.60;99.90;;;;;;10060761;28;20251;-65
2022/11/12 12:27:58;;;;;;;9.43;5.18;;;9.60;99.90;;;;;;10066180;28;20280;-65
2022/11/12 12:32:58;;;;;;;11.18;5.80;;;9.50;99.90;;;;;;10068421;28;20083;-65
2022/11/12 12:37:51;;;;;;;12.20;6.97;;;9.30;99.90;;;;;;10083799;28;20025;-65
2022/11/12 12:42:54;;;;;;;11.05;6.43;;;9.30;99.90;;;;;;10085983;28;20037;-65
2022/11/12 12:47:46;;;;;;;16.13;5.97;;;9.30;99.90;;;;;;10086862;28;20440;-63
2022/11/12 12:53:15;;;;;;;16.20;7.80;;;9.50;99.90;;;;;;10074590;28;20123;-65
2022/11/12 12:58:22;;;;;;;11.30;6.93;;;9.40;99.90;;;;;;10074464;28;20033;-64
2022/11/12 13:03:12;;;;;;;12.25;6.72;;;9.40;99.90;;;;;;10076013;28;20029;-64
2022/11/12 13:08:12;;;;;;;12.27;7.45;;;9.40;99.90;;;;;;10079432;28;20068;-66
2022/11/12 13:13:21;;;;;;;15.57;7.95;;;9.40;99.90;;;;;;10076403;28;20052;-64
2022/11/12 13:18:41;;;;;;;13.60;7.85;;;9.40;99.90;;;;;;10077999;28;20032;-65
2022/11/12 13:24:07;;;;;;;19.10;8.82;;;9.30;99.90;;;;;;10065204;28;20091;-65
2022/11/12 13:29:17;;;;;;;17.83;8.90;;;9.30;99.90;;;;;;10066604;28;20021;-64
2022/11/12 13:34:24;;;;;;;16.63;7.90;;;9.40;99.90;;;;;;10077891;28;20304;-65
2022/11/12 13:39:18;;;;;;;12.23;8.38;;;9.40;99.90;;;;;;10070366;28;20269;-65
2022/11/12 13:44:14;;;;;;;16.20;9.20;;;9.30;99.90;;;;;;10070861;28;20064;-65
2022/11/12 13:49:11;;;;;;;15.23;8.82;;;9.20;99.90;;;;;;10074259;28;20037;-65
2022/11/12 13:54:28;;;;;;;16.67;8.00;;;9.10;99.90;;;;;;10065882;28;20605;-66
2022/11/12 13:59:25;;;;;;;15.45;7.82;;;9.30;99.90;;;;;;10077018;28;20021;-65
2022/11/12 14:04:22;;;;;;;17.50;8.50;;;9.30;99.90;;;;;;10080804;28;20549;-65
2022/11/12 14:09:13;;;;;;;13.68;6.18;;;9.30;99.90;;;;;;10078412;28;20077;-64
2022/11/12 14:14:37;;;;;;;15.30;7.03;;;9.30;99.90;;;;;;10078573;28;20118;-66
2022/11/12 14:19:49;;;;;;;15.80;8.00;;;9.30;99.90;;;;;;10080839;28;20024;-64
2022/11/12 14:24:41;;;;;;;13.55;7.10;;;9.20;99.90;;;;;;10063094;28;20029;-64
2022/11/12 14:29:31;;;;;;;13.65;6.13;;;9.20;99.90;;;;;;10068363;28;20458;-64
2022/11/12 14:34:31;;;;;;;16.30;6.85;;;9.20;99.90;;;;;;10067987;28;20059;-64
2022/11/12 14:39:28;;;;;;;14.02;6.43;;;9.30;99.90;;;;;;10057866;28;20048;-65
2022/11/12 14:44:47;;;;;;;10.68;5.45;;;9.30;99.90;;;;;;10063731;28;20079;-64
2022/11/12 14:49:46;;;;;;;14.38;7.30;;;9.30;99.90;;;;;;10054482;28;20192;-65
2022/11/12 14:54:45;;;;;;;10.93;6.25;;;9.20;99.90;;;;;;10070449;28;20029;-65
2022/11/12 14:59:36;;;;;;;14.18;6.53;;;9.10;99.90;;;;;;10067725;28;20128;-64
2022/11/12 15:04:40;;;;;;;14.70;6.78;;;9.20;99.90;;;;;;10081473;28;20086;-64
2022/11/12 15:09:36;;;;;;;10.82;6.38;;;9.10;99.90;;;;;;10084537;28;20025;-63
2022/11/12 15:14:27;;;;;;;11.55;6.95;;;9.10;99.90;;;;;;10073211;28;20463;-64
2022/11/12 15:19:24;;;;;;;13.00;6.28;;;9.00;99.90;;;;;;10064272;28;20045;-65
2022/11/12 15:24:37;;;;;;;15.98;6.85;;;8.80;99.90;;;;;;10081072;28;20511;-65
2022/11/12 15:29:32;;;;;;;13.93;6.45;;;8.90;99.90;;;;;;10075472;28;20395;-64
2022/11/12 15:34:36;;;;;;;13.80;6.57;;;8.90;99.90;;;;;;10064784;28;20095;-65
2022/11/12 15:39:31;;;;;;;14.25;7.53;;;8.90;99.90;;;;;;10068371;28;20029;-64
2022/11/12 15:44:21;;;;;;;13.55;6.47;;;8.90;99.90;;;;;;10081947;28;20029;-65
2022/11/12 15:49:12;;;;;;;15.95;6.47;;;8.80;99.90;;;;;;10081535;28;20025;-63
2022/11/12 15:54:03;;;;;;;22.45;10.85;;;8.80;99.90;;;;;;10073173;28;20044;-64
2022/11/12 15:58:54;;;;;;;14.23;6.50;;;8.80;99.90;;;;;;10053599;28;20104;-66
2022/11/12 16:03:44;;;;;;;14.63;6.68;;;8.70;99.90;;;;;;10079199;28;20534;-66
2022/11/12 16:08:35;;;;;;;13.63;7.38;;;8.80;99.90;;;;;;10074340;28;20021;-64
2022/11/12 16:13:30;;;;;;;18.17;7.18;;;8.80;99.90;;;;;;10074245;28;20063;-65
2022/11/12 16:18:20;;;;;;;15.95;7.20;;;8.90;99.90;;;;;;10085581;28;20223;-64
2022/11/12 16:23:11;;;;;;;20.40;7.20;;;8.90;99.90;;;;;;10082306;28;20104;-64
2022/11/12 16:28:04;;;;;;;11.90;6.30;;;8.90;99.90;;;;;;10095060;28;20086;-67
2022/11/12 16:32:58;;;;;;;13.38;6.53;;;9.00;99.90;;;;;;10080648;28;20051;-65
2022/11/12 16:37:51;;;;;;;10.95;5.78;;;8.80;99.90;;;;;;10081747;28;20466;-66
2022/11/12 16:42:44;;;;;;;13.27;6.28;;;9.00;99.90;;;;;;10082284;28;20037;-66
2022/11/12 16:47:41;;;;;;;12.82;5.88;;;8.90;99.90;;;;;;10091994;28;20477;-64
2022/11/12 16:52:32;;;;;;;13.48;6.50;;;8.80;99.90;;;;;;10064573;28;20033;-64
2022/11/12 16:57:22;;;;;;;14.10;7.28;;;8.80;99.90;;;;;;10077214;28;20403;-64
2022/11/12 17:02:16;;;;;;;12.75;5.90;;;8.80;99.90;;;;;;10083142;28;20095;-64
2022/11/12 17:07:07;;;;;;;10.57;6.55;;;8.90;99.90;;;;;;10086155;28;20033;-64
2022/11/12 17:11:57;;;;;;;14.88;6.72;;;8.90;99.90;;;;;;10091355;28;20036;-65
2022/11/12 17:16:48;;;;;;;14.15;7.13;;;8.90;99.90;;;;;;10082184;28;20032;-64
2022/11/12 17:21:39;;;;;;;12.02;5.85;;;8.90;99.90;;;;;;10071676;28;20017;-64
2022/11/12 17:26:29;;;;;;;13.65;5.60;;;8.90;99.90;;;;;;10068881;28;20021;-64
2022/11/12 17:31:22;;;;;;;11.60;6.15;;;8.90;99.90;;;;;;10074210;28;20379;-65
2022/11/12 17:36:20;;;;;;;14.88;6.80;;;8.90;99.90;;;;;;10074240;28;20481;-64
2022/11/12 17:41:12;;;;;;;13.90;6.38;;;9.00;99.90;;;;;;10077397;28;20017;-65
2022/11/12 17:46:04;;;;;;;13.02;6.93;;;8.90;99.90;;;;;;10068861;28;20040;-66
2022/11/12 17:51:11;;;;;;;11.57;6.20;;;9.00;99.90;;;;;;10071510;28;20029;-64
2022/11/12 17:56:03;;;;;;;12.00;5.68;;;8.90;99.90;;;;;;10076917;28;20098;-65
2022/11/12 18:00:54;;;;;;;10.07;5.90;;;9.00;99.90;;;;;;10077892;28;20214;-64
2022/11/12 18:05:44;;;;;;;11.73;5.28;;;8.90;99.90;;;;;;10076713;28;20227;-64
2022/11/12 18:10:36;;;;;;;11.10;5.95;;;8.90;99.90;;;;;;10077387;28;20094;-64
2022/11/12 18:15:29;;;;;;;14.68;5.32;;;8.80;99.90;;;;;;10078718;28;20198;-66
2022/11/12 18:20:20;;;;;;;18.77;6.93;;;8.80;99.90;;;;;;10076641;28;20511;-64
2022/11/12 18:25:11;;;;;;;11.43;6.30;;;8.80;99.90;;;;;;10072053;28;20188;-65
2022/11/12 18:30:02;;;;;;;11.85;5.95;;;8.70;99.90;;;;;;10075696;28;20423;-64
2022/11/12 18:34:53;;;;;;;9.80;5.28;;;8.80;99.90;;;;;;10084628;28;20512;-65
2022/11/12 18:39:43;;;;;;;15.60;6.38;;;8.80;99.90;;;;;;10062470;28;20033;-66
2022/11/12 18:44:34;;;;;;;15.57;6.25;;;8.90;99.90;;;;;;10079551;28;20037;-64
2022/11/12 18:49:24;;;;;;;12.77;5.63;;;8.90;99.90;;;;;;10071987;28;20029;-65
2022/11/12 18:54:15;;;;;;;14.40;6.72;;;8.90;99.90;;;;;;10063602;28;20119;-63
2022/11/12 18:59:06;;;;;;;19.33;6.80;;;8.90;99.90;;;;;;10071659;28;20021;-65
2022/11/12 19:03:57;;;;;;;10.43;5.93;;;8.80;99.90;;;;;;10067386;28;20025;-67
2022/11/12 19:08:48;;;;;;;14.98;7.10;;;8.80;99.90;;;;;;10069946;28;20049;-66
2022/11/12 19:13:39;;;;;;;16.75;7.75;;;8.80;99.90;;;;;;10077124;28;20102;-65
2022/11/12 19:18:30;;;;;;;13.40;7.75;;;9.00;99.90;;;;;;10080879;28;20017;-64
2022/11/12 19:23:21;;;;;;;12.18;5.20;;;9.00;99.90;;;;;;10062679;28;20041;-64
2022/11/12 19:28:11;;;;;;;16.08;8.88;;;9.00;99.90;;;;;;10069243;28;20044;-65
2022/11/12 19:33:02;;;;;;;18.67;7.25;;;9.00;99.90;;;;;;10072564;28;20875;-65
2022/11/12 19:37:52;;;;;;;12.10;5.97;;;9.10;99.90;;;;;;10057319;28;20079;-66
2022/11/12 19:42:46;;;;;;;14.80;8.85;;;9.20;99.90;;;;;;10079479;28;20418;-67
2022/11/12 19:47:37;;;;;;;13.77;6.45;;;9.10;99.90;;;;;;10081142;28;20093;-65
2022/11/12 19:52:27;;;;;;;14.00;6.55;;;9.10;99.90;;;;;;10076278;28;20159;-65
2022/11/12 19:57:18;;;;;;;12.23;6.22;;;9.10;99.90;;;;;;10079528;28;20403;-65
2022/11/12 20:02:11;;;;;;;11.32;6.05;;;9.10;99.90;;;;;;10073699;28;20075;-66
2022/11/12 20:07:01;;;;;;;15.65;6.78;;;9.10;99.90;;;;;;10086990;28;20064;-66
2022/11/12 20:11:52;;;;;;;13.65;6.97;;;9.10;99.90;;;;;;10087012;28;20712;-68
2022/11/12 20:16:43;;;;;;;11.10;5.68;;;9.10;99.90;;;;;;10082022;28;20029;-66
2022/11/12 20:21:34;;;;;;;14.10;6.82;;;9.10;99.90;;;;;;10083022;28;20032;-66
2022/11/12 20:26:25;;;;;;;12.75;5.45;;;8.90;99.90;;;;;;10069933;28;20534;-67
2022/11/12 20:31:21;;;;;;;14.27;7.53;;;8.90;99.90;;;;;;10063693;28;20106;-65
2022/11/12 20:36:13;;;;;;;;;;;8.90;99.90;;;;;;10073011;28;20053;-66
2022/11/12 20:41:05;;;;;;;12.32;6.13;;;8.90;99.90;;;;;;10077708;28;19912;-67
2022/11/12 20:45:56;;;;;;;13.52;6.15;;;8.90;99.90;;;;;;10082056;28;20032;-66
2022/11/12 20:50:47;;;;;;;15.95;7.25;;;8.80;99.90;;;;;;10072296;28;20024;-66
2022/11/12 20:55:38;;;;;;;11.23;5.63;;;8.90;99.90;;;;;;10068810;28;20029;-65
2022/11/12 21:00:29;;;;;;;11.75;6.70;;;8.90;99.90;;;;;;10074120;28;20028;-66
2022/11/12 21:05:20;;;;;;;12.55;5.68;;;8.80;99.90;;;;;;10080149;28;20392;-64
2022/11/12 21:10:10;;;;;;;16.95;6.03;;;8.80;99.90;;;;;;10072299;28;20222;-65
2022/11/12 21:15:01;;;;;;;13.63;6.53;;;8.90;99.90;;;;;;10073441;28;20041;-65
2022/11/12 21:19:51;;;;;;;11.38;6.40;;;8.90;99.90;;;;;;10073875;28;20375;-67
2022/11/12 21:24:42;;;;;;;11.95;5.57;;;8.90;99.90;;;;;;10065913;28;20029;-66
2022/11/12 21:29:33;;;;;;;11.68;5.55;;;9.00;99.90;;;;;;10073257;28;20083;-67
2022/11/12 21:34:24;;;;;;;12.80;6.50;;;9.00;99.90;;;;;;10065471;28;20356;-66
2022/11/12 21:39:14;;;;;;;15.13;6.18;;;9.00;99.90;;;;;;10065856;28;20025;-66
2022/11/12 21:44:08;;;;;;;14.68;6.47;;;9.00;99.90;;;;;;10070827;28;20067;-67
2022/11/12 21:48:59;;;;;;;14.98;6.32;;;8.90;99.90;;;;;;10065421;28;20020;-64
2022/11/12 21:53:54;;;;;;;13.40;7.47;;;9.00;99.90;;;;;;10069956;28;20049;-68
2022/11/12 21:58:45;;;;;;;10.23;6.10;;;8.90;99.90;;;;;;10068766;28;20021;-66
2022/11/12 22:03:36;;;;;;;10.25;5.38;;;9.00;99.90;;;;;;10072641;28;20285;-67
2022/11/12 22:08:27;;;;;;;11.85;4.72;;;9.00;99.90;;;;;;10065268;28;20115;-67
2022/11/12 22:13:18;;;;;;;14.68;6.68;;;8.90;99.90;;;;;;10068063;28;20065;-68
2022/11/12 22:18:09;;;;;;;14.07;6.00;;;8.90;99.90;;;;;;10063004;28;20056;-66
2022/11/12 22:22:59;;;;;;;12.70;5.32;;;9.00;99.90;;;;;;10059772;28;20463;-67
2022/11/12 22:27:50;;;;;;;10.32;5.60;;;8.80;99.90;;;;;;10060931;28;20052;-65
2022/11/12 22:32:41;;;;;;;9.02;5.05;;;8.70;99.90;;;;;;10061390;28;20082;-67
2022/11/12 22:37:32;;;;;;;9.57;5.35;;;8.60;99.90;;;;;;10069144;28;20060;-66
2022/11/12 22:42:22;;;;;;;14.77;5.60;;;8.60;99.90;;;;;;10070674;28;20578;-64
2022/11/12 22:47:13;;;;;;;12.55;4.82;;;8.60;99.90;;;;;;10090282;28;21135;-65
2022/11/12 22:52:04;;;;;;;10.63;5.45;;;8.50;99.90;;;;;;10080103;28;20028;-64
2022/11/12 22:56:55;;;;;;;14.98;7.32;;;8.50;99.90;;;;;;10082769;28;20343;-65
2022/11/12 23:01:45;;;;;;;10.35;5.93;;;8.60;99.90;;;;;;10079637;28;20032;-64
2022/11/12 23:06:36;;;;;;;12.68;6.28;;;8.60;99.90;;;;;;10063333;28;20037;-64
2022/11/12 23:11:27;;;;;;;13.07;6.60;;;8.50;99.90;;;;;;10081252;28;20419;-64
2022/11/12 23:16:31;;;;;;;10.00;5.88;;;8.30;99.90;;;;;;10081351;28;20518;-65
2022/11/12 23:21:24;;;;;;;11.00;5.25;;;8.40;99.90;;;;;;10076185;28;20033;-65
2022/11/12 23:26:20;;;;;;;13.40;7.22;;;8.50;99.90;;;;;;10074169;28;20044;-65
2022/11/12 23:31:17;;;;;;;10.25;5.43;;;8.50;99.90;;;;;;10073901;28;20025;-64
2022/11/12 23:36:09;;;;;;;8.82;5.03;;;8.60;99.90;;;;;;10080740;28;20151;-65
2022/11/12 23:41:01;;;;;;;10.93;5.57;;;8.50;99.90;;;;;;10071238;28;20033;-67
2022/11/12 23:45:52;;;;;;;10.88;5.50;;;8.50;99.90;;;;;;10083773;28;20434;-66
2022/11/12 23:50:43;;;;;;;12.13;5.35;;;8.50;99.90;;;;;;10090175;28;20029;-64
2022/11/12 23:55:34;;;;;;;9.27;4.32;;;8.40;99.90;;;;;;10075958;28;20091;-66
